sensor_id;sensor_type;location;lat;lon;timestamp;pressure;altitude;pressure_sealevel;temperature;humidity
22572;BME280;11452;53.368;14.658;2023-12-28T00:02:26;100568.41;;;4.35;88.45
22572;BME280;11452;53.368;14.658;2023-12-28T00:07:32;100554.88;;;4.31;88.73
22572;BME280;11452;53.368;14.658;2023-12-28T00:12:37;100554.88;;;4.31;88.73
22572;BME280;11452;53.368;14.658;2023-12-28T00:17:43;100547.10;;;4.40;88.34
22572;BME280;11452;53.368;14.658;2023-12-28T00:22:49;100520.49;;;4.44;88.07
22572;BME280;11452;53.368;14.658;2023-12-28T00:27:54;100475.53;;;4.56;87.55
22572;BME280;11452;53.368;14.658;2023-12-28T00:33:01;100475.53;;;4.56;87.55
22572;BME280;11452;53.368;14.658;2023-12-28T00:38:09;100453.44;;;4.57;87.65
22572;BME280;11452;53.368;14.658;2023-12-28T00:43:14;100432.52;;;4.63;87.39
22572;BME280;11452;53.368;14.658;2023-12-28T00:48:20;100406.45;;;4.64;87.10
22572;BME280;11452;53.368;14.658;2023-12-28T00:53:27;100412.20;;;4.63;87.04
22572;BME280;11452;53.368;14.658;2023-12-28T00:58:32;100423.16;;;4.52;87.55
22572;BME280;11452;53.368;14.658;2023-12-28T01:03:39;100416.95;;;4.53;87.72
22572;BME280;11452;53.368;14.658;2023-12-28T01:08:45;100405.05;;;4.53;87.55
22572;BME280;11452;53.368;14.658;2023-12-28T01:13:52;100386.99;;;4.41;87.83
22572;BME280;11452;53.368;14.658;2023-12-28T01:18:58;100380.44;;;4.40;88.09
22572;BME280;11452;53.368;14.658;2023-12-28T01:24:05;100354.89;;;4.50;87.69
22572;BME280;11452;53.368;14.658;2023-12-28T01:29:13;100356.72;;;4.48;87.96
22572;BME280;11452;53.368;14.658;2023-12-28T01:34:18;100371.27;;;4.48;88.36
22572;BME280;11452;53.368;14.658;2023-12-28T01:39:26;100378.64;;;4.52;88.52
22572;BME280;11452;53.368;14.658;2023-12-28T01:44:32;100409.88;;;4.54;88.62
22572;BME280;11452;53.368;14.658;2023-12-28T01:49:38;100414.83;;;4.51;88.70
22572;BME280;11452;53.368;14.658;2023-12-28T01:54:44;100416.30;;;4.47;88.77
22572;BME280;11452;53.368;14.658;2023-12-28T01:59:51;100413.09;;;4.50;88.97
22572;BME280;11452;53.368;14.658;2023-12-28T02:04:57;100399.00;;;4.50;89.07
22572;BME280;11452;53.368;14.658;2023-12-28T02:10:04;100376.11;;;4.49;89.20
22572;BME280;11452;53.368;14.658;2023-12-28T02:15:10;100348.56;;;4.55;89.45
22572;BME280;11452;53.368;14.658;2023-12-28T02:20:16;100332.98;;;4.59;89.45
22572;BME280;11452;53.368;14.658;2023-12-28T02:25:23;100307.75;;;4.72;89.35
22572;BME280;11452;53.368;14.658;2023-12-28T02:30:29;100307.75;;;4.72;89.35
22572;BME280;11452;53.368;14.658;2023-12-28T02:35:41;100267.49;;;4.85;89.09
22572;BME280;11452;53.368;14.658;2023-12-28T02:40:48;100281.77;;;5.03;88.95
22572;BME280;11452;53.368;14.658;2023-12-28T02:45:54;100288.48;;;5.22;88.71
22572;BME280;11452;53.368;14.658;2023-12-28T02:51:00;100320.38;;;5.41;88.32
22572;BME280;11452;53.368;14.658;2023-12-28T02:56:07;100327.03;;;5.61;87.94
22572;BME280;11452;53.368;14.658;2023-12-28T03:01:13;100317.48;;;5.77;87.36
22572;BME280;11452;53.368;14.658;2023-12-28T03:06:19;100320.30;;;5.95;86.18
22572;BME280;11452;53.368;14.658;2023-12-28T03:11:24;100311.08;;;6.03;86.16
22572;BME280;11452;53.368;14.658;2023-12-28T03:16:30;100305.95;;;6.19;85.44
22572;BME280;11452;53.368;14.658;2023-12-28T03:21:41;100303.84;;;6.36;84.96
22572;BME280;11452;53.368;14.658;2023-12-28T03:26:47;100312.68;;;6.55;84.71
22572;BME280;11452;53.368;14.658;2023-12-28T03:31:54;100305.77;;;6.61;84.89
22572;BME280;11452;53.368;14.658;2023-12-28T03:37:00;100299.78;;;6.66;85.04
22572;BME280;11452;53.368;14.658;2023-12-28T03:42:06;100291.62;;;6.79;84.57
22572;BME280;11452;53.368;14.658;2023-12-28T03:47:11;100312.80;;;6.89;84.00
22572;BME280;11452;53.368;14.658;2023-12-28T03:52:18;100304.27;;;7.02;83.09
22572;BME280;11452;53.368;14.658;2023-12-28T03:57:24;100304.77;;;7.18;82.64
22572;BME280;11452;53.368;14.658;2023-12-28T04:02:31;100301.87;;;7.32;81.71
22572;BME280;11452;53.368;14.658;2023-12-28T04:07:38;100296.33;;;7.45;81.33
22572;BME280;11452;53.368;14.658;2023-12-28T04:12:43;100300.63;;;7.47;81.17
22572;BME280;11452;53.368;14.658;2023-12-28T04:17:49;100287.41;;;7.46;81.32
22572;BME280;11452;53.368;14.658;2023-12-28T04:22:55;100285.88;;;7.42;81.59
22572;BME280;11452;53.368;14.658;2023-12-28T04:28:01;100275.08;;;7.36;81.75
22572;BME280;11452;53.368;14.658;2023-12-28T04:33:07;100281.18;;;7.38;81.61
22572;BME280;11452;53.368;14.658;2023-12-28T04:38:13;100290.62;;;7.44;81.53
22572;BME280;11452;53.368;14.658;2023-12-28T04:43:19;100298.54;;;7.54;81.39
22572;BME280;11452;53.368;14.658;2023-12-28T04:48:25;100301.75;;;7.60;81.04
22572;BME280;11452;53.368;14.658;2023-12-28T04:53:32;100301.73;;;7.69;80.91
22572;BME280;11452;53.368;14.658;2023-12-28T04:58:38;100309.02;;;7.74;80.90
22572;BME280;11452;53.368;14.658;2023-12-28T05:03:45;100299.48;;;7.79;80.73
22572;BME280;11452;53.368;14.658;2023-12-28T05:08:51;100309.07;;;7.81;80.60
22572;BME280;11452;53.368;14.658;2023-12-28T05:13:57;100309.23;;;7.87;80.49
22572;BME280;11452;53.368;14.658;2023-12-28T05:19:02;100304.70;;;7.97;80.39
22572;BME280;11452;53.368;14.658;2023-12-28T05:24:08;100313.05;;;8.07;80.04
22572;BME280;11452;53.368;14.658;2023-12-28T05:29:14;100326.03;;;8.13;80.15
22572;BME280;11452;53.368;14.658;2023-12-28T05:34:19;100334.53;;;8.20;79.82
22572;BME280;11452;53.368;14.658;2023-12-28T05:39:25;100334.92;;;8.21;79.53
22572;BME280;11452;53.368;14.658;2023-12-28T05:44:31;100336.37;;;8.11;79.41
22572;BME280;11452;53.368;14.658;2023-12-28T05:49:38;100339.73;;;8.06;79.43
22572;BME280;11452;53.368;14.658;2023-12-28T05:54:45;100345.91;;;8.06;79.45
22572;BME280;11452;53.368;14.658;2023-12-28T05:59:53;100360.09;;;8.07;79.36
22572;BME280;11452;53.368;14.658;2023-12-28T06:04:58;100368.22;;;8.04;79.49
22572;BME280;11452;53.368;14.658;2023-12-28T06:10:05;100375.03;;;8.00;79.60
22572;BME280;11452;53.368;14.658;2023-12-28T06:15:11;100370.36;;;7.97;79.76
22572;BME280;11452;53.368;14.658;2023-12-28T06:20:17;100365.42;;;7.89;80.03
22572;BME280;11452;53.368;14.658;2023-12-28T06:25:24;100367.98;;;7.82;80.30
22572;BME280;11452;53.368;14.658;2023-12-28T06:30:29;100368.38;;;7.83;80.61
22572;BME280;11452;53.368;14.658;2023-12-28T06:35:35;100375.66;;;7.80;80.78
22572;BME280;11452;53.368;14.658;2023-12-28T06:40:41;100372.31;;;7.76;81.10
22572;BME280;11452;53.368;14.658;2023-12-28T06:45:47;100381.92;;;7.70;81.36
22572;BME280;11452;53.368;14.658;2023-12-28T06:50:52;100393.25;;;7.65;81.67
22572;BME280;11452;53.368;14.658;2023-12-28T06:55:58;100408.67;;;7.58;81.92
22572;BME280;11452;53.368;14.658;2023-12-28T07:01:04;100408.27;;;7.57;82.08
22572;BME280;11452;53.368;14.658;2023-12-28T07:06:10;100415.53;;;7.54;82.13
22572;BME280;11452;53.368;14.658;2023-12-28T07:11:16;100426.17;;;7.54;82.34
22572;BME280;11452;53.368;14.658;2023-12-28T07:16:22;100427.28;;;7.58;82.31
22572;BME280;11452;53.368;14.658;2023-12-28T07:21:27;100428.44;;;7.53;82.39
22572;BME280;11452;53.368;14.658;2023-12-28T07:26:33;100440.00;;;7.52;82.45
22572;BME280;11452;53.368;14.658;2023-12-28T07:31:39;100445.79;;;7.51;82.56
22572;BME280;11452;53.368;14.658;2023-12-28T07:36:45;100429.77;;;7.53;82.50
22572;BME280;11452;53.368;14.658;2023-12-28T07:41:51;100445.97;;;7.57;82.42
22572;BME280;11452;53.368;14.658;2023-12-28T07:46:58;100449.09;;;7.56;82.34
22572;BME280;11452;53.368;14.658;2023-12-28T07:52:04;100441.27;;;7.62;82.29
22572;BME280;11452;53.368;14.658;2023-12-28T07:57:10;100434.47;;;7.65;82.32
22572;BME280;11452;53.368;14.658;2023-12-28T08:02:15;100439.20;;;7.77;82.23
22572;BME280;11452;53.368;14.658;2023-12-28T08:07:23;100440.06;;;7.86;82.14
22572;BME280;11452;53.368;14.658;2023-12-28T08:12:28;100438.44;;;7.92;82.07
22572;BME280;11452;53.368;14.658;2023-12-28T08:17:34;100444.76;;;7.98;82.08
22572;BME280;11452;53.368;14.658;2023-12-28T08:22:40;100443.67;;;8.03;82.06
22572;BME280;11452;53.368;14.658;2023-12-28T08:27:46;100443.84;;;8.08;82.08
22572;BME280;11452;53.368;14.658;2023-12-28T08:32:51;100456.53;;;8.12;82.03
22572;BME280;11452;53.368;14.658;2023-12-28T08:37:57;100458.19;;;8.14;82.11
22572;BME280;11452;53.368;14.658;2023-12-28T08:43:04;100464.20;;;8.26;82.05
22572;BME280;11452;53.368;14.658;2023-12-28T08:48:09;100469.86;;;8.38;82.01
22572;BME280;11452;53.368;14.658;2023-12-28T08:53:15;100474.72;;;8.47;81.96
22572;BME280;11452;53.368;14.658;2023-12-28T08:58:21;100469.38;;;8.55;81.85
22572;BME280;11452;53.368;14.658;2023-12-28T09:03:27;100479.25;;;8.71;81.76
22572;BME280;11452;53.368;14.658;2023-12-28T09:08:33;100471.30;;;8.86;81.59
22572;BME280;11452;53.368;14.658;2023-12-28T09:13:41;100466.62;;;9.07;81.49
22572;BME280;11452;53.368;14.658;2023-12-28T09:18:47;100472.20;;;9.18;81.23
22572;BME280;11452;53.368;14.658;2023-12-28T09:23:53;100461.63;;;9.32;81.03
22572;BME280;11452;53.368;14.658;2023-12-28T09:28:58;100461.72;;;9.47;80.72
22572;BME280;11452;53.368;14.658;2023-12-28T09:34:04;100445.68;;;9.55;80.44
22572;BME280;11452;53.368;14.658;2023-12-28T09:39:10;100450.16;;;9.55;80.30
22572;BME280;11452;53.368;14.658;2023-12-28T09:44:17;100447.15;;;9.61;80.23
22572;BME280;11452;53.368;14.658;2023-12-28T09:49:23;100460.87;;;9.62;80.09
22572;BME280;11452;53.368;14.658;2023-12-28T09:54:29;100455.80;;;9.57;80.15
22572;BME280;11452;53.368;14.658;2023-12-28T09:59:35;100462.11;;;9.48;80.24
22572;BME280;11452;53.368;14.658;2023-12-28T10:04:42;100453.71;;;9.47;80.44
22572;BME280;11452;53.368;14.658;2023-12-28T10:09:48;100453.24;;;9.47;80.29
22572;BME280;11452;53.368;14.658;2023-12-28T10:14:54;100451.05;;;9.47;80.20
22572;BME280;11452;53.368;14.658;2023-12-28T10:20:00;100441.22;;;9.40;80.33
22572;BME280;11452;53.368;14.658;2023-12-28T10:25:12;100439.34;;;9.49;80.26
22572;BME280;11452;53.368;14.658;2023-12-28T10:30:19;100452.05;;;9.53;80.14
22572;BME280;11452;53.368;14.658;2023-12-28T10:35:25;100451.57;;;9.53;80.09
22572;BME280;11452;53.368;14.658;2023-12-28T10:40:32;100446.48;;;9.49;80.06
22572;BME280;11452;53.368;14.658;2023-12-28T10:45:40;100438.41;;;9.50;80.02
22572;BME280;11452;53.368;14.658;2023-12-28T10:50:49;100442.41;;;9.50;79.90
22572;BME280;11452;53.368;14.658;2023-12-28T11:01:24;100436.42;;;9.54;80.01
22572;BME280;11452;53.368;14.658;2023-12-28T11:06:31;100433.16;;;9.64;79.79
22572;BME280;11452;53.368;14.658;2023-12-28T11:11:38;100434.21;;;9.69;79.69
22572;BME280;11452;53.368;14.658;2023-12-28T11:16:45;100446.83;;;9.74;79.62
22572;BME280;11452;53.368;14.658;2023-12-28T11:21:52;100437.32;;;9.84;79.15
22572;BME280;11452;53.368;14.658;2023-12-28T11:26:58;100437.84;;;9.91;78.98
22572;BME280;11452;53.368;14.658;2023-12-28T11:32:04;100428.53;;;9.98;78.85
22572;BME280;11452;53.368;14.658;2023-12-28T11:37:15;100419.10;;;10.06;78.44
22572;BME280;11452;53.368;14.658;2023-12-28T11:42:23;100418.95;;;10.17;77.92
22572;BME280;11452;53.368;14.658;2023-12-28T11:47:29;100422.34;;;10.20;77.56
22572;BME280;11452;53.368;14.658;2023-12-28T11:52:35;100414.23;;;10.29;77.21
22572;BME280;11452;53.368;14.658;2023-12-28T11:57:40;100422.19;;;10.37;76.95
22572;BME280;11452;53.368;14.658;2023-12-28T12:02:46;100410.81;;;10.41;76.54
22572;BME280;11452;53.368;14.658;2023-12-28T12:07:52;100405.97;;;10.48;76.16
22572;BME280;11452;53.368;14.658;2023-12-28T12:12:57;100392.90;;;10.64;75.70
22572;BME280;11452;53.368;14.658;2023-12-28T12:18:05;100359.59;;;10.70;75.10
22572;BME280;11452;53.368;14.658;2023-12-28T12:23:10;100345.19;;;10.72;74.91
22572;BME280;11452;53.368;14.658;2023-12-28T12:28:17;100335.03;;;10.78;74.34
22572;BME280;11452;53.368;14.658;2023-12-28T12:33:24;100322.81;;;10.81;74.00
22572;BME280;11452;53.368;14.658;2023-12-28T12:38:32;100331.79;;;10.87;73.74
22572;BME280;11452;53.368;14.658;2023-12-28T12:43:38;100337.48;;;10.95;73.30
22572;BME280;11452;53.368;14.658;2023-12-28T12:48:59;100340.34;;;10.99;72.98
22572;BME280;11452;53.368;14.658;2023-12-28T12:54:08;100351.42;;;11.00;72.78
22572;BME280;11452;53.368;14.658;2023-12-28T12:59:14;100364.41;;;10.99;72.49
22572;BME280;11452;53.368;14.658;2023-12-28T13:04:22;100359.35;;;11.01;72.25
22572;BME280;11452;53.368;14.658;2023-12-28T13:09:28;100366.55;;;10.94;72.10
22572;BME280;11452;53.368;14.658;2023-12-28T13:14:34;100372.05;;;10.98;72.25
22572;BME280;11452;53.368;14.658;2023-12-28T13:19:39;100371.97;;;11.33;71.93
22572;BME280;11452;53.368;14.658;2023-12-28T13:24:45;100366.44;;;11.63;71.08
22572;BME280;11452;53.368;14.658;2023-12-28T13:29:51;100367.53;;;11.81;70.45
22572;BME280;11452;53.368;14.658;2023-12-28T13:34:57;100370.53;;;11.89;69.66
22572;BME280;11452;53.368;14.658;2023-12-28T13:40:05;100377.66;;;11.83;69.47
22572;BME280;11452;53.368;14.658;2023-12-28T13:45:12;100381.50;;;11.78;69.11
22572;BME280;11452;53.368;14.658;2023-12-28T13:50:18;100374.89;;;11.70;68.95
22572;BME280;11452;53.368;14.658;2023-12-28T13:55:24;100381.23;;;11.69;68.98
22572;BME280;11452;53.368;14.658;2023-12-28T14:00:30;100375.60;;;11.66;68.60
22572;BME280;11452;53.368;14.658;2023-12-28T14:05:35;100375.13;;;11.67;68.55
22572;BME280;11452;53.368;14.658;2023-12-28T14:10:42;100365.02;;;11.58;68.53
22572;BME280;11452;53.368;14.658;2023-12-28T14:15:49;100363.89;;;11.28;68.54
22572;BME280;11452;53.368;14.658;2023-12-28T14:20:54;100355.72;;;11.09;68.64
22572;BME280;11452;53.368;14.658;2023-12-28T14:26:02;100364.61;;;11.03;68.77
22572;BME280;11452;53.368;14.658;2023-12-28T14:31:15;100372.44;;;11.06;68.77
22572;BME280;11452;53.368;14.658;2023-12-28T14:41:37;100368.80;;;11.07;68.86
22572;BME280;11452;53.368;14.658;2023-12-28T14:46:45;100363.49;;;10.93;69.00
22572;BME280;11452;53.368;14.658;2023-12-28T14:51:50;100379.34;;;10.82;69.21
22572;BME280;11452;53.368;14.658;2023-12-28T14:56:56;100380.48;;;10.78;69.41
22572;BME280;11452;53.368;14.658;2023-12-28T15:02:02;100371.70;;;10.83;69.53
22572;BME280;11452;53.368;14.658;2023-12-28T15:07:08;100373.52;;;10.89;69.53
22572;BME280;11452;53.368;14.658;2023-12-28T15:12:14;100381.25;;;10.94;69.46
22572;BME280;11452;53.368;14.658;2023-12-28T15:17:20;100371.67;;;10.97;69.48
22572;BME280;11452;53.368;14.658;2023-12-28T15:22:27;100381.80;;;10.99;69.41
22572;BME280;11452;53.368;14.658;2023-12-28T15:27:33;100368.91;;;10.98;69.30
22572;BME280;11452;53.368;14.658;2023-12-28T15:32:40;100375.69;;;10.97;69.37
22572;BME280;11452;53.368;14.658;2023-12-28T15:37:47;100377.50;;;10.96;69.37
22572;BME280;11452;53.368;14.658;2023-12-28T15:42:55;100374.92;;;10.95;69.44
22572;BME280;11452;53.368;14.658;2023-12-28T15:48:01;100380.11;;;10.91;69.42
22572;BME280;11452;53.368;14.658;2023-12-28T15:53:08;100371.70;;;10.83;69.44
22572;BME280;11452;53.368;14.658;2023-12-28T15:58:13;100368.45;;;10.78;69.52
22572;BME280;11452;53.368;14.658;2023-12-28T16:03:19;100360.16;;;10.61;69.74
22572;BME280;11452;53.368;14.658;2023-12-28T16:08:25;100353.02;;;10.54;70.00
22572;BME280;11452;53.368;14.658;2023-12-28T16:13:31;100365.13;;;10.46;70.26
22572;BME280;11452;53.368;14.658;2023-12-28T16:18:38;100358.53;;;10.44;70.38
22572;BME280;11452;53.368;14.658;2023-12-28T16:23:44;100358.06;;;10.45;70.43
22572;BME280;11452;53.368;14.658;2023-12-28T16:28:51;100374.67;;;10.50;70.58
22572;BME280;11452;53.368;14.658;2023-12-28T16:33:59;100358.55;;;10.51;70.60
22572;BME280;11452;53.368;14.658;2023-12-28T16:39:08;100366.93;;;10.45;70.55
22572;BME280;11452;53.368;14.658;2023-12-28T16:44:13;100365.87;;;10.26;70.82
22572;BME280;11452;53.368;14.658;2023-12-28T16:49:20;100356.17;;;10.10;71.11
22572;BME280;11452;53.368;14.658;2023-12-28T16:54:26;100353.88;;;9.96;71.35
22572;BME280;11452;53.368;14.658;2023-12-28T16:59:31;100355.05;;;9.84;71.60
22572;BME280;11452;53.368;14.658;2023-12-28T17:04:38;100368.31;;;9.78;71.89
22572;BME280;11452;53.368;14.658;2023-12-28T17:09:47;100368.87;;;9.76;72.11
22572;BME280;11452;53.368;14.658;2023-12-28T17:14:55;100364.13;;;9.88;72.01
22572;BME280;11452;53.368;14.658;2023-12-28T17:20:02;100356.16;;;10.02;71.85
22572;BME280;11452;53.368;14.658;2023-12-28T17:30:36;100357.85;;;10.26;71.63
22572;BME280;11452;53.368;14.658;2023-12-28T17:35:42;100355.50;;;10.36;70.99
22572;BME280;11452;53.368;14.658;2023-12-28T17:40:49;100357.77;;;10.42;70.89
22572;BME280;11452;53.368;14.658;2023-12-28T17:46:17;100357.88;;;10.48;70.45
22572;BME280;11452;53.368;14.658;2023-12-28T17:51:16;100356.54;;;10.48;70.28
22572;BME280;11452;53.368;14.658;2023-12-28T17:56:22;100363.13;;;10.35;70.33
22572;BME280;11452;53.368;14.658;2023-12-28T18:01:29;100355.18;;;10.26;70.40
22572;BME280;11452;53.368;14.658;2023-12-28T18:06:36;100376.70;;;10.16;70.46
22572;BME280;11452;53.368;14.658;2023-12-28T18:11:42;100362.64;;;10.05;70.68
22572;BME280;11452;53.368;14.658;2023-12-28T18:16:48;100367.92;;;10.14;70.62
22572;BME280;11452;53.368;14.658;2023-12-28T18:21:54;100357.45;;;10.18;70.66
22572;BME280;11452;53.368;14.658;2023-12-28T18:26:59;100363.28;;;10.25;70.65
22572;BME280;11452;53.368;14.658;2023-12-28T18:32:06;100368.73;;;10.30;70.58
22572;BME280;11452;53.368;14.658;2023-12-28T18:37:16;100369.88;;;10.26;70.53
22572;BME280;11452;53.368;14.658;2023-12-28T18:42:20;100370.36;;;10.19;70.54
22572;BME280;11452;53.368;14.658;2023-12-28T18:47:26;100385.43;;;10.04;70.69
22572;BME280;11452;53.368;14.658;2023-12-28T18:52:32;100382.84;;;10.02;70.69
22572;BME280;11452;53.368;14.658;2023-12-28T18:57:37;100384.48;;;9.98;70.88
22572;BME280;11452;53.368;14.658;2023-12-28T19:02:43;100382.20;;;9.99;70.94
22572;BME280;11452;53.368;14.658;2023-12-28T19:07:49;100383.92;;;10.00;71.04
22572;BME280;11452;53.368;14.658;2023-12-28T19:12:55;100379.23;;;10.03;71.12
22572;BME280;11452;53.368;14.658;2023-12-28T19:18:00;100365.97;;;10.02;71.10
22572;BME280;11452;53.368;14.658;2023-12-28T19:23:07;100364.52;;;9.89;71.21
22572;BME280;11452;53.368;14.658;2023-12-28T19:28:13;100367.36;;;9.79;71.55
22572;BME280;11452;53.368;14.658;2023-12-28T19:33:19;100367.33;;;9.72;71.79
22572;BME280;11452;53.368;14.658;2023-12-28T19:38:24;100359.20;;;9.66;71.95
22572;BME280;11452;53.368;14.658;2023-12-28T19:43:30;100354.80;;;9.58;72.18
22572;BME280;11452;53.368;14.658;2023-12-28T19:48:36;100346.55;;;9.47;72.69
22572;BME280;11452;53.368;14.658;2023-12-28T19:53:42;100350.62;;;9.38;72.92
22572;BME280;11452;53.368;14.658;2023-12-28T19:58:47;100348.38;;;9.31;73.29
22572;BME280;11452;53.368;14.658;2023-12-28T20:03:54;100347.91;;;9.31;73.64
22572;BME280;11452;53.368;14.658;2023-12-28T20:09:00;100346.58;;;9.31;73.79
22572;BME280;11452;53.368;14.658;2023-12-28T20:14:08;100346.00;;;9.26;73.96
22572;BME280;11452;53.368;14.658;2023-12-28T20:19:13;100343.98;;;9.23;74.22
22572;BME280;11452;53.368;14.658;2023-12-28T20:24:20;100344.14;;;9.20;74.46
22572;BME280;11452;53.368;14.658;2023-12-28T20:29:27;100337.18;;;9.17;74.66
22572;BME280;11452;53.368;14.658;2023-12-28T20:34:32;100341.09;;;9.19;74.80
22572;BME280;11452;53.368;14.658;2023-12-28T20:39:38;100335.84;;;9.17;74.97
22572;BME280;11452;53.368;14.658;2023-12-28T20:44:44;100334.12;;;9.16;75.08
22572;BME280;11452;53.368;14.658;2023-12-28T20:49:49;100325.73;;;9.15;75.19
22572;BME280;11452;53.368;14.658;2023-12-28T20:54:56;100326.68;;;9.14;75.29
22572;BME280;11452;53.368;14.658;2023-12-28T21:00:03;100314.77;;;9.13;75.36
22572;BME280;11452;53.368;14.658;2023-12-28T21:05:11;100323.62;;;9.13;75.45
22572;BME280;11452;53.368;14.658;2023-12-28T21:10:17;100323.45;;;9.09;75.55
22572;BME280;11452;53.368;14.658;2023-12-28T21:15:22;100311.06;;;9.08;75.68
22572;BME280;11452;53.368;14.658;2023-12-28T21:20:28;100324.00;;;9.07;75.59
22572;BME280;11452;53.368;14.658;2023-12-28T21:25:34;100331.55;;;8.99;75.74
22572;BME280;11452;53.368;14.658;2023-12-28T21:30:40;100315.65;;;8.97;75.85
22572;BME280;11452;53.368;14.658;2023-12-28T21:35:45;100322.61;;;9.00;75.84
22572;BME280;11452;53.368;14.658;2023-12-28T21:40:51;100315.06;;;9.08;75.73
22572;BME280;11452;53.368;14.658;2023-12-28T21:45:57;100315.80;;;9.10;75.75
22572;BME280;11452;53.368;14.658;2023-12-28T21:51:03;100307.06;;;9.08;75.75
22572;BME280;11452;53.368;14.658;2023-12-28T21:56:09;100308.97;;;9.13;75.75
22572;BME280;11452;53.368;14.658;2023-12-28T22:01:16;100306.27;;;9.22;75.53
22572;BME280;11452;53.368;14.658;2023-12-28T22:06:22;100306.82;;;9.20;75.55
22572;BME280;11452;53.368;14.658;2023-12-28T22:11:28;100297.36;;;9.14;75.55
22572;BME280;11452;53.368;14.658;2023-12-28T22:16:34;100304.28;;;9.10;75.59
22572;BME280;11452;53.368;14.658;2023-12-28T22:21:40;100294.67;;;9.07;75.61
22572;BME280;11452;53.368;14.658;2023-12-28T22:26:46;100285.60;;;9.02;75.60
22572;BME280;11452;53.368;14.658;2023-12-28T22:31:52;100287.02;;;9.01;75.67
22572;BME280;11452;53.368;14.658;2023-12-28T22:36:58;100290.63;;;9.00;75.68
22572;BME280;11452;53.368;14.658;2023-12-28T22:42:05;100278.42;;;8.96;75.77
22572;BME280;11452;53.368;14.658;2023-12-28T22:47:11;100273.34;;;8.91;75.74
22572;BME280;11452;53.368;14.658;2023-12-28T22:52:17;100262.23;;;8.76;75.84
22572;BME280;11452;53.368;14.658;2023-12-28T22:57:22;100257.91;;;8.66;76.11
22572;BME280;11452;53.368;14.658;2023-12-28T23:02:28;100257.13;;;8.64;76.27
22572;BME280;11452;53.368;14.658;2023-12-28T23:07:34;100256.58;;;8.66;76.32
22572;BME280;11452;53.368;14.658;2023-12-28T23:12:40;100254.00;;;8.65;76.39
22572;BME280;11452;53.368;14.658;2023-12-28T23:17:46;100247.97;;;8.61;76.39
22572;BME280;11452;53.368;14.658;2023-12-28T23:22:53;100235.98;;;8.61;76.52
22572;BME280;11452;53.368;14.658;2023-12-28T23:27:59;100223.14;;;8.61;76.53
22572;BME280;11452;53.368;14.658;2023-12-28T23:33:05;100221.56;;;8.65;76.56
22572;BME280;11452;53.368;14.658;2023-12-28T23:38:11;100217.00;;;8.67;76.51
22572;BME280;11452;53.368;14.658;2023-12-28T23:43:16;100204.27;;;8.57;76.56
22572;BME280;11452;53.368;14.658;2023-12-28T23:48:22;100188.36;;;8.48;76.80
22572;BME280;11452;53.368;14.658;2023-12-28T23:53:28;100205.53;;;8.43;76.98
22572;BME280;11452;53.368;14.658;2023-12-28T23:58:34;100201.21;;;8.33;77.30
